Time;durP1;ratioP1;P1;durP2;ratioP2;P2;SDS_P1;SDS_P2;PMS_P1;PMS_P2;Temp;Humidity;BMP_temperature;BMP_pressure;BME280_temperature;BME280_humidity;BME280_pressure;Samples;Min_cycle;Max_cycle;Signal;HPM_P1;HPM_P2
2022/03/25 00:00:31;;;;;;;0.10;0.10;;;2.70;71.50;;;;;;5017919;28;20046;-76
2022/03/25 00:02:57;;;;;;;0.13;0.13;;;2.70;81.60;;;;;;5017917;28;20084;-76
2022/03/25 00:05:23;;;;;;;0.55;0.55;;;2.60;54.00;;;;;;5017909;28;20072;-77
2022/03/25 00:07:49;;;;;;;0.47;0.47;;;2.60;54.90;;;;;;5017525;28;20038;-77
2022/03/25 00:10:15;;;;;;;0.45;0.45;;;2.60;68.70;;;;;;5017864;28;20072;-76
2022/03/25 00:12:41;;;;;;;0.43;0.43;;;2.50;73.00;;;;;;5017965;28;20449;-76
2022/03/25 00:15:07;;;;;;;0.10;0.10;;;2.40;78.30;;;;;;5017295;28;20077;-76
2022/03/25 00:17:33;;;;;;;0.22;0.22;;;2.40;84.80;;;;;;5017957;28;20042;-76
2022/03/25 00:19:59;;;;;;;0.30;0.30;;;2.40;79.80;;;;;;5017581;28;20049;-76
2022/03/25 00:22:25;;;;;;;0.30;0.30;;;2.40;88.10;;;;;;5017507;28;20029;-76
2022/03/25 00:24:51;;;;;;;1.27;0.57;;;2.50;81.60;;;;;;5017482;28;20046;-76
2022/03/25 00:27:17;;;;;;;0.47;0.47;;;2.40;74.30;;;;;;5017672;28;20054;-76
2022/03/25 00:29:43;;;;;;;1.75;1.00;;;2.40;84.30;;;;;;5017637;28;20034;-76
2022/03/25 00:32:09;;;;;;;0.22;0.22;;;2.40;66.50;;;;;;5017396;28;20128;-76
2022/03/25 00:34:35;;;;;;;0.38;0.38;;;2.40;52.00;;;;;;5017285;28;20054;-76
2022/03/25 00:37:01;;;;;;;0.10;0.10;;;2.30;78.00;;;;;;5017761;28;20041;-77
2022/03/25 00:39:28;;;;;;;2.05;0.68;;;2.30;72.80;;;;;;5018094;28;20497;-76
2022/03/25 00:41:54;;;;;;;0.30;0.30;;;2.30;84.50;;;;;;5017290;28;20043;-77
2022/03/25 00:44:20;;;;;;;0.28;0.28;;;2.40;92.90;;;;;;5017187;28;20104;-76
2022/03/25 00:46:46;;;;;;;0.10;0.10;;;2.40;91.90;;;;;;5017629;28;20100;-76
2022/03/25 00:49:12;;;;;;;0.30;0.30;;;2.40;71.20;;;;;;5017032;28;20045;-76
2022/03/25 00:51:38;;;;;;;0.30;0.30;;;2.30;72.80;;;;;;5015964;28;20038;-76
2022/03/25 00:54:04;;;;;;;0.15;0.15;;;2.20;76.80;;;;;;5016995;28;20026;-77
2022/03/25 00:56:30;;;;;;;0.35;0.35;;;2.20;91.90;;;;;;5017187;28;20042;-76
2022/03/25 00:58:56;;;;;;;0.10;0.10;;;2.20;94.70;;;;;;5016854;28;20091;-76
2022/03/25 01:01:21;;;;;;;0.60;0.60;;;2.20;95.20;;;;;;5016966;28;20427;-76
2022/03/25 01:03:47;;;;;;;0.40;0.40;;;2.20;84.10;;;;;;5017072;28;20192;-76
2022/03/25 01:06:13;;;;;;;0.20;0.15;;;2.10;83.10;;;;;;5017226;28;20042;-77
2022/03/25 01:08:39;;;;;;;0.10;0.10;;;2.00;88.30;;;;;;5016956;28;20042;-76
2022/03/25 01:11:05;;;;;;;0.32;0.32;;;1.90;77.60;;;;;;5016782;28;20025;-76
2022/03/25 01:13:33;;;;;;;0.20;0.20;;;1.90;98.40;;;;;;5016791;28;20048;-76
2022/03/25 01:16:08;;;;;;;0.32;0.32;;;1.90;92.60;;;;;;5016623;28;20057;-77
2022/03/25 01:18:35;;;;;;;1.85;0.75;;;1.90;93.00;;;;;;5016760;28;20033;-77
2022/03/25 01:21:00;;;;;;;0.45;0.45;;;1.80;98.00;;;;;;5016801;28;20077;-76
2022/03/25 01:23:27;;;;;;;0.10;0.10;;;1.70;99.90;;;;;;5016437;28;20042;-76
2022/03/25 01:25:53;;;;;;;0.10;0.10;;;1.80;98.30;;;;;;5016511;28;20050;-76
2022/03/25 01:28:19;;;;;;;0.75;0.75;;;1.80;99.70;;;;;;5016445;28;20041;-76
2022/03/25 01:30:46;;;;;;;0.20;0.20;;;1.80;94.00;;;;;;5016544;28;20030;-76
2022/03/25 01:33:14;;;;;;;0.10;0.10;;;1.80;94.80;;;;;;5017076;28;20076;-77
2022/03/25 01:35:41;;;;;;;0.10;0.10;;;1.80;92.10;;;;;;5016156;28;20046;-76
2022/03/25 01:38:07;;;;;;;0.10;0.10;;;1.80;99.30;;;;;;5016136;28;20074;-76
2022/03/25 01:40:33;;;;;;;1.08;1.05;;;1.70;87.20;;;;;;5015901;28;20073;-77
2022/03/25 01:42:59;;;;;;;0.20;0.20;;;1.60;89.10;;;;;;5016884;28;20041;-76
2022/03/25 01:45:32;;;;;;;0.20;0.20;;;1.70;99.90;;;;;;5016379;28;20072;-76
2022/03/25 01:47:59;;;;;;;0.10;0.10;;;1.70;99.90;;;;;;5015867;28;20068;-76
2022/03/25 01:50:25;;;;;;;0.10;0.10;;;1.70;99.90;;;;;;5016137;28;20037;-76
2022/03/25 01:52:52;;;;;;;0.30;0.30;;;1.60;99.90;;;;;;5015860;28;20488;-76
2022/03/25 01:55:21;;;;;;;0.57;0.57;;;1.70;99.90;;;;;;5015892;28;20081;-76
2022/03/25 01:57:50;;;;;;;0.10;0.10;;;1.60;97.90;;;;;;5016077;28;20042;-76
2022/03/25 02:00:18;;;;;;;0.30;0.30;;;1.80;99.90;;;;;;5015751;28;20440;-76
2022/03/25 02:02:45;;;;;;;1.13;0.93;;;1.80;99.90;;;;;;5015481;28;20362;-76
2022/03/25 02:05:11;;;;;;;0.30;0.30;;;1.90;99.90;;;;;;5015941;28;20076;-76
2022/03/25 02:07:37;;;;;;;0.10;0.10;;;2.00;99.90;;;;;;5015780;28;20492;-76
2022/03/25 02:10:04;;;;;;;0.10;0.10;;;2.00;96.20;;;;;;5015432;28;20084;-76
2022/03/25 02:12:35;;;;;;;0.10;0.10;;;2.10;92.10;;;;;;5015437;28;20033;-76
2022/03/25 02:15:02;;;;;;;0.17;0.17;;;2.20;83.40;;;;;;5015954;28;20053;-76
2022/03/25 02:17:29;;;;;;;0.30;0.30;;;2.30;62.20;;;;;;5015799;28;20030;-76
2022/03/25 02:19:55;;;;;;;0.10;0.10;;;2.40;80.30;;;;;;5016236;28;20100;-76
2022/03/25 02:22:22;;;;;;;0.63;0.63;;;2.40;68.90;;;;;;5015660;28;20041;-76
2022/03/25 02:24:49;;;;;;;0.10;0.10;;;2.40;61.40;;;;;;5015373;28;20049;-76
2022/03/25 02:27:16;;;;;;;0.10;0.10;;;2.60;74.80;;;;;;5014818;28;20107;-76
2022/03/25 02:29:43;;;;;;;0.28;0.28;;;2.70;62.90;;;;;;5015273;28;20125;-77
2022/03/25 02:32:10;;;;;;;1.95;0.85;;;2.80;54.60;;;;;;5015250;28;20046;-76
2022/03/25 02:34:37;;;;;;;0.20;0.20;;;2.90;41.70;;;;;;5015124;28;20132;-76
2022/03/25 02:37:04;;;;;;;0.10;0.10;;;2.80;50.00;;;;;;5014959;28;20069;-77
2022/03/25 02:39:31;;;;;;;0.65;0.65;;;2.80;42.50;;;;;;5015376;28;20068;-77
2022/03/25 02:41:57;;;;;;;0.25;0.25;;;2.80;49.80;;;;;;5014912;28;20037;-76
2022/03/25 02:44:23;;;;;;;0.20;0.20;;;2.80;48.50;;;;;;5014756;28;20038;-76
2022/03/25 02:46:49;;;;;;;0.20;0.20;;;2.90;55.60;;;;;;5014876;28;20049;-77
2022/03/25 02:49:16;;;;;;;9.57;1.13;;;2.90;55.10;;;;;;5015240;28;20057;-76
2022/03/25 02:51:42;;;;;;;0.30;0.30;;;2.90;38.20;;;;;;5014876;28;20091;-77
2022/03/25 02:54:08;;;;;;;0.60;0.60;;;2.90;55.60;;;;;;5015192;28;20124;-76
2022/03/25 02:56:34;;;;;;;0.17;0.17;;;2.70;57.50;;;;;;5014546;28;20045;-77
2022/03/25 02:59:00;;;;;;;0.17;0.17;;;2.70;57.30;;;;;;5014464;28;20125;-77
2022/03/25 03:01:25;;;;;;;0.75;0.52;;;2.60;50.90;;;;;;5014819;28;20052;-76
2022/03/25 03:03:53;;;;;;;0.43;0.43;;;2.70;55.10;;;;;;5014819;28;20038;-77
2022/03/25 03:06:19;;;;;;;0.10;0.10;;;2.60;54.30;;;;;;5014676;28;20132;-76
2022/03/25 03:08:45;;;;;;;0.52;0.52;;;2.50;58.10;;;;;;5014463;28;20046;-76
2022/03/25 03:11:11;;;;;;;1.30;0.38;;;2.50;59.00;;;;;;5014822;28;20161;-77
2022/03/25 03:13:38;;;;;;;0.10;0.10;;;2.50;46.40;;;;;;5014730;28;20048;-76
2022/03/25 03:16:04;;;;;;;1.45;1.35;;;2.50;66.50;;;;;;5018453;28;20056;-77
2022/03/25 03:18:30;;;;;;;0.40;0.40;;;2.60;63.40;;;;;;5019000;28;20044;-77
2022/03/25 03:20:57;;;;;;;0.82;0.73;;;2.50;51.70;;;;;;5018721;28;20431;-76
2022/03/25 03:23:23;;;;;;;0.70;0.70;;;2.50;57.20;;;;;;5018925;28;20038;-77
2022/03/25 03:25:48;;;;;;;1.65;0.40;;;2.50;56.50;;;;;;5018866;28;20515;-76
2022/03/25 03:28:14;;;;;;;0.10;0.10;;;2.50;55.50;;;;;;5018599;28;20049;-77
2022/03/25 03:30:40;;;;;;;0.55;0.55;;;2.50;79.50;;;;;;5018841;28;20042;-76
2022/03/25 03:33:06;;;;;;;0.32;0.32;;;2.50;77.40;;;;;;5019337;28;20038;-76
2022/03/25 03:35:36;;;;;;;0.55;0.30;;;2.40;53.40;;;;;;5018658;28;20049;-76
2022/03/25 03:38:03;;;;;;;0.20;0.20;;;2.30;61.20;;;;;;5018388;28;20061;-76
2022/03/25 03:40:29;;;;;;;3.25;0.68;;;2.30;75.40;;;;;;5018548;28;20042;-76
2022/03/25 03:42:55;;;;;;;0.52;0.52;;;2.30;89.20;;;;;;5018344;28;20119;-76
2022/03/25 03:45:21;;;;;;;0.30;0.30;;;2.30;92.20;;;;;;5018830;28;20057;-76
2022/03/25 03:47:47;;;;;;;0.20;0.20;;;2.30;99.90;;;;;;5018255;28;20404;-76
2022/03/25 03:50:16;;;;;;;0.05;0.05;;;2.30;93.90;;;;;;5018751;28;20042;-76
2022/03/25 03:52:43;;;;;;;0.20;0.20;;;2.30;99.90;;;;;;5018131;28;20038;-76
2022/03/25 03:55:10;;;;;;;0.30;0.30;;;2.30;97.00;;;;;;5017820;28;20456;-76
2022/03/25 03:57:37;;;;;;;0.30;0.30;;;2.20;93.70;;;;;;5018953;28;20044;-76
2022/03/25 04:00:05;;;;;;;0.10;0.10;;;2.10;96.40;;;;;;5018267;28;20488;-76
2022/03/25 04:02:31;;;;;;;0.40;0.40;;;2.10;97.50;;;;;;5018193;28;20049;-76
2022/03/25 04:04:57;;;;;;;1.02;0.50;;;2.10;98.80;;;;;;5018201;28;20048;-76
2022/03/25 04:07:23;;;;;;;0.10;0.10;;;2.10;95.00;;;;;;5017520;28;20033;-76
2022/03/25 04:09:49;;;;;;;0.32;0.32;;;2.20;99.90;;;;;;5018658;28;20065;-76
2022/03/25 04:12:15;;;;;;;0.10;0.10;;;2.10;89.30;;;;;;5017928;28;20534;-76
2022/03/25 04:14:41;;;;;;;1.10;0.47;;;2.10;95.50;;;;;;5018223;28;20493;-77
2022/03/25 04:17:07;;;;;;;0.10;0.10;;;2.10;98.80;;;;;;5017865;28;20048;-77
2022/03/25 04:19:33;;;;;;;0.20;0.20;;;2.20;99.90;;;;;;5017949;28;20042;-76
2022/03/25 04:21:59;;;;;;;1.95;0.65;;;2.20;99.90;;;;;;5017878;28;20592;-76
2022/03/25 04:24:24;;;;;;;0.20;0.20;;;2.10;94.20;;;;;;5017606;28;20073;-76
2022/03/25 04:26:50;;;;;;;0.35;0.35;;;2.10;99.90;;;;;;5017519;28;20506;-76
2022/03/25 04:29:18;;;;;;;0.00;0.00;;;2.20;99.90;;;;;;5017214;28;20033;-77
2022/03/25 04:31:45;;;;;;;0.22;0.22;;;2.10;97.90;;;;;;5017303;28;20042;-76
2022/03/25 04:34:10;;;;;;;0.17;0.17;;;2.20;99.90;;;;;;5017408;28;20088;-76
2022/03/25 04:36:37;;;;;;;1.27;0.47;;;2.20;98.50;;;;;;5017287;28;20519;-76
2022/03/25 04:39:03;;;;;;;0.13;0.13;;;2.20;82.40;;;;;;5017210;28;20033;-76
2022/03/25 04:41:29;;;;;;;0.10;0.10;;;1.90;66.60;;;;;;5017076;28;20037;-76
2022/03/25 04:43:55;;;;;;;0.30;0.30;;;1.90;95.40;;;;;;5017167;28;20034;-76
2022/03/25 04:46:21;;;;;;;0.13;0.13;;;1.90;99.90;;;;;;5017024;28;20049;-76
2022/03/25 04:48:47;;;;;;;0.52;0.40;;;1.80;99.60;;;;;;5017111;28;20500;-76
2022/03/25 04:51:12;;;;;;;0.10;0.10;;;1.80;99.90;;;;;;5017265;28;20048;-76
2022/03/25 04:53:38;;;;;;;0.20;0.20;;;1.80;93.80;;;;;;5017041;28;20045;-77
2022/03/25 04:56:04;;;;;;;0.40;0.35;;;1.70;99.90;;;;;;5016917;28;20084;-76
2022/03/25 04:58:30;;;;;;;0.35;0.20;;;1.70;99.90;;;;;;5016929;28;20038;-76
2022/03/25 05:00:56;;;;;;;0.20;0.20;;;1.50;99.90;;;;;;5016950;28;20150;-77
2022/03/25 05:03:22;;;;;;;0.20;0.20;;;1.50;99.90;;;;;;5016553;28;20121;-77
2022/03/25 05:05:49;;;;;;;0.10;0.10;;;1.50;99.90;;;;;;5016931;28;20120;-77
2022/03/25 05:08:15;;;;;;;0.15;0.15;;;1.50;99.90;;;;;;5015875;28;20042;-77
2022/03/25 05:10:41;;;;;;;0.10;0.10;;;1.50;99.90;;;;;;5015876;28;20117;-75
2022/03/25 05:13:08;;;;;;;0.65;0.65;;;1.40;99.90;;;;;;5016542;28;20044;-77
2022/03/25 05:15:34;;;;;;;0.10;0.10;;;1.50;99.90;;;;;;5015896;28;20128;-77
2022/03/25 05:18:00;;;;;;;0.30;0.30;;;1.50;99.90;;;;;;5016245;28;20077;-77
2022/03/25 05:20:26;;;;;;;0.10;0.10;;;1.40;99.90;;;;;;5016506;28;20038;-77
2022/03/25 05:22:52;;;;;;;1.45;1.10;;;1.50;99.90;;;;;;5016070;28;20588;-77
2022/03/25 05:25:20;;;;;;;0.10;0.10;;;1.50;99.90;;;;;;5015207;28;20037;-76
2022/03/25 05:27:57;;;;;;;1.38;0.73;;;1.40;99.90;;;;;;5016219;28;20528;-76
2022/03/25 05:30:34;;;;;;;0.10;0.10;;;1.40;99.90;;;;;;5015759;28;20045;-76
2022/03/25 05:33:00;;;;;;;0.22;0.22;;;1.40;99.90;;;;;;5014899;28;20381;-75
2022/03/25 05:35:28;;;;;;;2.10;0.38;;;1.30;99.90;;;;;;5016098;28;20053;-76
2022/03/25 05:38:43;;;;;;;0.22;0.17;;;1.20;99.90;;;;;;5014685;28;20088;-76
2022/03/25 05:41:09;;;;;;;0.57;0.57;;;1.20;99.90;;;;;;5014032;28;20042;-75
2022/03/25 05:43:35;;;;;;;0.30;0.30;;;1.20;99.90;;;;;;5015115;28;20481;-75
2022/03/25 05:46:03;;;;;;;0.15;0.15;;;1.30;99.90;;;;;;5014741;28;20077;-75
2022/03/25 05:48:29;;;;;;;0.68;0.68;;;1.40;99.90;;;;;;5014663;28;20484;-75
2022/03/25 05:50:55;;;;;;;0.00;0.00;;;1.40;99.90;;;;;;5014934;28;20531;-75
2022/03/25 05:53:21;;;;;;;0.20;0.20;;;1.30;97.60;;;;;;4997223;28;20037;-75
2022/03/25 05:55:47;;;;;;;0.10;0.10;;;1.40;99.90;;;;;;5015064;28;20076;-75
2022/03/25 05:58:13;;;;;;;0.28;0.28;;;1.20;95.90;;;;;;5015592;28;20084;-75
2022/03/25 06:00:40;;;;;;;0.30;0.30;;;1.30;99.90;;;;;;5015434;28;20040;-75
2022/03/25 06:03:06;;;;;;;0.22;0.22;;;1.30;99.90;;;;;;5015442;28;20049;-75
2022/03/25 06:05:32;;;;;;;0.10;0.10;;;1.40;99.90;;;;;;5015985;28;20052;-75
2022/03/25 06:07:58;;;;;;;0.30;0.30;;;1.40;99.90;;;;;;5015925;28;20046;-75
2022/03/25 06:10:25;;;;;;;0.15;0.15;;;1.60;91.60;;;;;;5015902;28;20041;-75
2022/03/25 06:12:50;;;;;;;1.65;0.68;;;1.50;76.30;;;;;;5015494;28;20034;-76
2022/03/25 06:15:16;;;;;;;0.20;0.20;;;1.70;90.00;;;;;;5016346;28;20038;-75
2022/03/25 06:17:44;;;;;;;0.30;0.30;;;1.80;94.00;;;;;;5015776;28;20049;-75
2022/03/25 06:20:12;;;;;;;0.10;0.10;;;1.90;81.80;;;;;;5015442;28;20065;-75
2022/03/25 06:22:40;;;;;;;0.10;0.10;;;2.10;71.00;;;;;;5015859;28;20050;-75
2022/03/25 06:25:08;;;;;;;0.15;0.15;;;2.30;73.90;;;;;;5015459;28;20049;-76
2022/03/25 06:27:34;;;;;;;0.22;0.22;;;2.40;62.30;;;;;;4997326;28;20381;-75
2022/03/25 06:30:00;;;;;;;0.20;0.20;;;2.60;44.40;;;;;;5015282;28;20045;-75
2022/03/25 06:32:25;;;;;;;0.25;0.25;;;2.60;44.70;;;;;;5015228;28;20399;-75
2022/03/25 06:34:51;;;;;;;0.25;0.25;;;2.60;20.50;;;;;;5015367;28;20136;-75
2022/03/25 06:37:18;;;;;;;0.22;0.22;;;2.80;23.50;;;;;;5014913;28;20038;-75
2022/03/25 06:39:44;;;;;;;0.10;0.10;;;2.80;14.10;;;;;;4997557;28;20385;-75
2022/03/25 06:42:10;;;;;;;0.20;0.20;;;3.00;17.70;;;;;;5014902;28;20038;-75
2022/03/25 06:44:35;;;;;;;1.50;1.02;;;3.00;13.20;;;;;;5015043;28;20037;-75
2022/03/25 06:47:01;;;;;;;0.17;0.17;;;3.20;2.80;;;;;;5015044;28;20046;-75
2022/03/25 06:49:27;;;;;;;0.82;0.47;;;3.30;5.10;;;;;;5014135;28;20065;-76
2022/03/25 06:51:53;;;;;;;0.10;0.10;;;3.60;2.70;;;;;;5014610;28;20048;-75
2022/03/25 06:54:19;;;;;;;0.20;0.20;;;3.90;1.00;;;;;;5015393;28;20038;-75
2022/03/25 06:56:45;;;;;;;0.10;0.10;;;4.10;1.90;;;;;;5014673;28;20057;-76
2022/03/25 06:59:11;;;;;;;1.45;0.47;;;4.30;1.00;;;;;;5014837;28;20041;-76
2022/03/25 07:01:38;;;;;;;0.32;0.32;;;4.40;1.00;;;;;;5014637;28;20061;-76
2022/03/25 07:04:04;;;;;;;0.20;0.20;;;4.10;1.00;;;;;;5014686;28;20034;-76
2022/03/25 07:06:31;;;;;;;0.30;0.30;;;4.10;1.00;;;;;;5014858;28;20049;-76
2022/03/25 07:08:57;;;;;;;0.20;0.20;;;4.40;1.00;;;;;;4997133;28;20378;-76
2022/03/25 07:11:24;;;;;;;0.40;0.40;;;4.50;1.00;;;;;;5014206;28;20038;-75
2022/03/25 07:13:51;;;;;;;0.25;0.25;;;4.50;1.00;;;;;;5014705;28;20080;-76
2022/03/25 07:16:18;;;;;;;0.73;0.73;;;4.60;1.00;;;;;;5014649;28;20544;-76
2022/03/25 07:18:44;;;;;;;0.13;0.13;;;4.80;1.00;;;;;;5014348;28;20045;-75
2022/03/25 07:21:10;;;;;;;0.85;0.75;;;5.00;1.00;;;;;;5014499;28;20041;-76
2022/03/25 07:23:35;;;;;;;0.10;0.10;;;5.10;1.00;;;;;;5014240;28;20033;-76
2022/03/25 07:26:02;;;;;;;0.10;0.10;;;5.20;1.00;;;;;;5013325;28;20058;-76
2022/03/25 07:28:28;;;;;;;0.20;0.20;;;5.30;1.00;;;;;;5014257;28;20037;-76
2022/03/25 07:30:53;;;;;;;0.10;0.10;;;5.50;1.00;;;;;;5014849;28;20042;-76
2022/03/25 07:33:19;;;;;;;0.60;0.60;;;5.30;1.00;;;;;;5014776;28;20405;-76
2022/03/25 07:35:45;;;;;;;0.30;0.30;;;5.50;1.00;;;;;;5014739;28;20489;-76
2022/03/25 07:38:11;;;;;;;0.80;0.80;;;5.80;1.00;;;;;;5014689;28;20041;-76
2022/03/25 07:40:37;;;;;;;0.55;0.40;;;5.70;1.00;;;;;;5014375;28;20034;-76
2022/03/25 07:43:03;;;;;;;0.38;0.38;;;6.00;1.00;;;;;;5014390;28;20045;-75
2022/03/25 07:45:29;;;;;;;0.10;0.10;;;6.10;1.00;;;;;;5014150;28;20038;-76
2022/03/25 07:47:55;;;;;;;0.10;0.10;;;6.20;1.00;;;;;;5014678;28;20476;-75
2022/03/25 07:50:23;;;;;;;3.13;0.57;;;6.60;1.00;;;;;;5014343;28;20038;-76
2022/03/25 07:52:50;;;;;;;0.30;0.30;;;6.60;1.00;;;;;;5014306;28;20042;-76
2022/03/25 07:55:20;;;;;;;0.32;0.32;;;7.00;1.00;;;;;;5006019;28;20138;-76
2022/03/25 07:57:46;;;;;;;1.50;1.40;;;7.10;1.00;;;;;;4995007;28;20042;-76
2022/03/25 08:00:13;;;;;;;0.32;0.32;;;7.30;1.00;;;;;;4995610;28;20052;-76
2022/03/25 08:02:41;;;;;;;0.25;0.25;;;7.50;1.00;;;;;;5011177;28;20526;-76
2022/03/25 08:05:09;;;;;;;0.15;0.15;;;7.10;1.00;;;;;;5017608;28;20042;-76
2022/03/25 08:07:49;;;;;;;1.48;0.85;;;7.40;1.00;;;;;;5017764;28;20040;-77
2022/03/25 08:10:21;;;;;;;0.30;0.30;;;7.80;1.00;;;;;;5010622;28;20575;-76
2022/03/25 08:12:47;;;;;;;0.32;0.32;;;7.70;1.00;;;;;;5013907;28;20034;-77
2022/03/25 08:15:13;;;;;;;0.45;0.45;;;8.00;1.00;;;;;;4998835;28;20497;-76
2022/03/25 08:18:06;;;;;;;0.10;0.10;;;7.90;1.00;;;;;;4998298;28;20381;-76
2022/03/25 08:20:37;;;;;;;0.30;0.30;;;8.10;1.00;;;;;;4994954;28;20504;-75
2022/03/25 08:23:05;;;;;;;0.98;0.75;;;8.00;1.00;;;;;;5000229;28;20039;-77
2022/03/25 08:28:17;;;;;;;0.38;0.38;;;7.90;1.00;;;;;;5015624;28;20033;-76
2022/03/25 08:30:44;;;;;;;0.43;0.43;;;8.10;1.00;;;;;;5015086;28;20128;-76
2022/03/25 08:33:11;;;;;;;0.88;0.88;;;8.00;1.00;;;;;;5000523;28;20104;-74
2022/03/25 08:35:38;;;;;;;0.52;0.52;;;8.70;1.00;;;;;;5013034;28;20046;-74
2022/03/25 08:38:05;;;;;;;0.20;0.20;;;9.00;1.00;;;;;;5013487;28;20096;-77
2022/03/25 08:40:32;;;;;;;0.45;0.45;;;9.00;1.00;;;;;;4999648;28;20049;-74
2022/03/25 08:42:59;;;;;;;0.57;0.57;;;9.30;1.00;;;;;;4998717;28;20038;-74
2022/03/25 08:45:25;;;;;;;0.17;0.17;;;9.40;1.00;;;;;;5017886;28;20048;-73
2022/03/25 08:47:51;;;;;;;0.63;0.63;;;9.40;1.00;;;;;;5014866;28;20050;-74
2022/03/25 08:50:19;;;;;;;0.52;0.52;;;9.60;1.00;;;;;;5016826;28;20481;-74
2022/03/25 08:52:46;;;;;;;0.13;0.13;;;9.60;1.00;;;;;;5017913;28;20144;-74
2022/03/25 08:55:13;;;;;;;0.10;0.10;;;9.70;1.00;;;;;;5016384;28;20083;-74
2022/03/25 08:57:40;;;;;;;0.35;0.35;;;9.90;1.00;;;;;;5017124;28;20381;-74
2022/03/25 09:00:12;;;;;;;0.20;0.20;;;10.00;1.00;;;;;;5016595;28;20041;-74
2022/03/25 09:02:40;;;;;;;0.55;0.55;;;10.20;1.00;;;;;;5017420;28;20034;-74
2022/03/25 09:05:07;;;;;;;0.40;0.40;;;10.30;1.00;;;;;;5017102;28;20085;-74
2022/03/25 09:07:34;;;;;;;0.63;0.63;;;10.20;1.00;;;;;;5016842;28;20062;-74
2022/03/25 09:10:00;;;;;;;3.40;0.65;;;10.20;1.00;;;;;;5016557;28;20037;-74
2022/03/25 09:12:26;;;;;;;0.63;0.63;;;10.20;1.00;;;;;;5015745;28;20037;-74
2022/03/25 09:14:52;;;;;;;0.38;0.38;;;10.30;1.00;;;;;;5017043;28;20450;-74
2022/03/25 09:17:18;;;;;;;3.97;1.35;;;10.30;99.90;;;;;;5016336;28;20041;-74
2022/03/25 09:19:44;;;;;;;0.28;0.28;;;10.30;99.90;;;;;;5016882;28;20125;-73
2022/03/25 09:22:11;;;;;;;1.25;1.00;;;10.20;99.90;;;;;;5016388;28;20084;-74
2022/03/25 09:24:36;;;;;;;0.73;0.73;;;10.30;99.90;;;;;;5016699;28;20098;-74
2022/03/25 09:27:03;;;;;;;1.27;0.65;;;10.40;99.90;;;;;;5015859;28;20054;-74
2022/03/25 09:29:29;;;;;;;0.55;0.55;;;10.40;99.90;;;;;;5016482;28;20042;-74
2022/03/25 09:31:55;;;;;;;0.30;0.30;;;10.50;99.90;;;;;;5016164;28;20159;-74
2022/03/25 09:37:05;;;;;;;0.38;0.38;;;10.60;99.90;;;;;;5015651;28;20049;-74
2022/03/25 09:39:31;;;;;;;0.52;0.52;;;10.80;99.90;;;;;;4999061;28;20046;-74
2022/03/25 09:41:59;;;;;;;0.93;0.40;;;10.80;99.90;;;;;;5015920;28;20034;-74
2022/03/25 09:44:25;;;;;;;0.10;0.10;;;11.00;99.90;;;;;;5016143;28;20576;-73
2022/03/25 09:46:51;;;;;;;1.65;1.23;;;10.90;99.90;;;;;;5016227;28;20049;-74
2022/03/25 09:49:18;;;;;;;0.47;0.47;;;11.10;99.90;;;;;;5016287;28;20045;-74
2022/03/25 09:51:44;;;;;;;0.85;0.70;;;11.10;99.90;;;;;;5015922;28;20036;-74
2022/03/25 09:54:14;;;;;;;0.13;0.13;;;11.20;99.90;;;;;;5015955;28;20065;-74
2022/03/25 09:56:40;;;;;;;0.40;0.40;;;11.30;99.90;;;;;;5015335;28;20042;-74
2022/03/25 09:59:07;;;;;;;0.25;0.25;;;11.30;99.90;;;;;;5015847;28;20045;-74
2022/03/25 10:01:34;;;;;;;0.25;0.25;;;11.40;99.90;;;;;;5015733;28;20117;-74
2022/03/25 10:04:00;;;;;;;1.55;0.68;;;11.40;99.90;;;;;;5015734;28;20049;-74
2022/03/25 10:06:26;;;;;;;0.82;0.60;;;11.50;99.90;;;;;;5015563;28;20116;-74
2022/03/25 10:09:02;;;;;;;0.45;0.43;;;11.60;99.90;;;;;;5016180;28;20050;-74
2022/03/25 10:11:31;;;;;;;0.25;0.25;;;11.70;99.90;;;;;;5015154;28;20521;-74
2022/03/25 10:14:17;;;;;;;0.32;0.32;;;11.70;99.90;;;;;;5015615;28;20607;-74
2022/03/25 10:16:45;;;;;;;0.55;0.55;;;11.70;99.90;;;;;;5015076;28;20060;-74
2022/03/25 10:19:21;;;;;;;0.22;0.22;;;11.60;99.90;;;;;;5015547;28;20073;-74
2022/03/25 10:21:56;;;;;;;2.08;0.47;;;11.60;99.90;;;;;;5015098;28;20041;-74
2022/03/25 10:24:42;;;;;;;0.50;0.50;;;11.60;99.90;;;;;;5015481;28;20045;-74
2022/03/25 10:27:08;;;;;;;0.22;0.22;;;11.80;99.90;;;;;;5014811;28;20049;-74
2022/03/25 10:29:35;;;;;;;0.93;0.80;;;11.90;99.90;;;;;;5015299;28;20084;-74
2022/03/25 10:32:38;;;;;;;1.05;0.93;;;11.80;99.90;;;;;;5015169;28;20034;-74
2022/03/25 10:35:10;;;;;;;0.38;0.38;;;11.90;99.90;;;;;;4974111;28;20048;-74
2022/03/25 10:37:38;;;;;;;0.38;0.38;;;12.10;99.90;;;;;;5014879;28;20038;-74
2022/03/25 10:40:07;;;;;;;0.32;0.32;;;12.10;99.90;;;;;;5014905;28;20034;-74
2022/03/25 10:42:33;;;;;;;0.13;0.13;;;12.10;99.90;;;;;;5015302;28;20064;-74
2022/03/25 10:44:59;;;;;;;0.40;0.40;;;12.20;99.90;;;;;;5015323;28;20441;-74
2022/03/25 10:47:28;;;;;;;2.90;1.75;;;12.30;99.90;;;;;;5015106;28;20129;-74
2022/03/25 10:49:56;;;;;;;1.35;0.52;;;12.50;99.90;;;;;;5014895;28;20128;-74
2022/03/25 10:52:31;;;;;;;0.10;0.10;;;12.20;99.90;;;;;;5014988;28;20153;-74
2022/03/25 10:55:29;;;;;;;0.20;0.20;;;12.40;99.90;;;;;;5014846;28;20053;-74
2022/03/25 10:57:58;;;;;;;1.55;0.85;;;12.80;99.90;;;;;;4971095;28;20037;-74
2022/03/25 11:00:25;;;;;;;0.30;0.30;;;12.90;99.90;;;;;;5014785;28;20033;-74
2022/03/25 11:02:51;;;;;;;1.65;1.25;;;12.90;99.90;;;;;;5014552;28;20378;-74
2022/03/25 11:05:17;;;;;;;0.30;0.30;;;13.10;99.90;;;;;;5014522;28;20119;-74
2022/03/25 11:07:45;;;;;;;1.75;0.75;;;13.20;99.90;;;;;;5015251;28;20041;-74
2022/03/25 11:10:13;;;;;;;0.68;0.50;;;13.10;99.90;;;;;;5014464;28;20489;-74
2022/03/25 11:12:47;;;;;;;1.75;0.20;;;13.30;99.90;;;;;;5014715;28;20129;-74
2022/03/25 11:15:17;;;;;;;0.70;0.50;;;13.30;99.90;;;;;;5014332;28;20049;-74
2022/03/25 11:17:44;;;;;;;0.47;0.47;;;13.20;99.90;;;;;;5015015;28;20033;-74
2022/03/25 11:20:15;;;;;;;0.40;0.40;;;13.30;99.90;;;;;;5014903;28;20315;-74
2022/03/25 11:22:51;;;;;;;0.22;0.22;;;13.50;99.90;;;;;;5014828;28;20046;-74
2022/03/25 11:25:21;;;;;;;1.05;1.05;;;13.40;99.90;;;;;;5014289;28;20132;-74
2022/03/25 11:27:54;;;;;;;0.70;0.70;;;13.50;99.90;;;;;;5014736;28;20085;-74
2022/03/25 11:30:20;;;;;;;0.60;0.60;;;13.50;99.90;;;;;;5015162;28;20034;-74
2022/03/25 11:33:06;;;;;;;2.50;0.52;;;13.60;99.90;;;;;;5015114;28;20038;-74
2022/03/25 11:35:41;;;;;;;0.20;0.20;;;13.60;99.90;;;;;;4998723;28;20392;-75
2022/03/25 11:38:18;;;;;;;0.20;0.20;;;13.70;99.90;;;;;;5018828;28;20136;-74
2022/03/25 11:40:45;;;;;;;0.40;0.40;;;13.80;99.90;;;;;;5018754;28;20073;-74
2022/03/25 11:43:16;;;;;;;0.20;0.20;;;13.70;99.90;;;;;;5018620;28;20476;-74
2022/03/25 11:45:43;;;;;;;0.95;0.68;;;13.80;99.90;;;;;;5018922;28;20045;-74
2022/03/25 11:48:10;;;;;;;0.20;0.20;;;14.10;99.90;;;;;;5018609;28;20049;-74
2022/03/25 11:50:38;;;;;;;0.60;0.60;;;14.10;99.90;;;;;;5018714;28;20044;-75
2022/03/25 11:53:13;;;;;;;0.30;0.30;;;14.20;99.90;;;;;;5018503;28;20034;-74
2022/03/25 11:56:09;;;;;;;0.40;0.40;;;14.30;99.90;;;;;;5018457;28;20081;-74
2022/03/25 11:58:56;;;;;;;0.40;0.40;;;14.50;99.90;;;;;;5002100;28;20038;-74
2022/03/25 12:01:23;;;;;;;0.40;0.40;;;14.50;99.90;;;;;;5018166;28;20042;-74
2022/03/25 12:03:52;;;;;;;0.28;0.28;;;14.60;99.90;;;;;;5018575;28;20045;-74
2022/03/25 12:06:22;;;;;;;0.47;0.43;;;14.70;99.90;;;;;;5017914;28;20033;-74
2022/03/25 12:09:15;;;;;;;0.20;0.20;;;14.80;99.90;;;;;;5017919;28;20049;-74
2022/03/25 12:12:00;;;;;;;0.20;0.20;;;15.10;99.90;;;;;;5014645;28;20038;-74
2022/03/25 12:14:31;;;;;;;1.95;0.68;;;15.00;99.90;;;;;;5018052;28;20384;-74
2022/03/25 12:17:11;;;;;;;0.20;0.20;;;15.10;99.90;;;;;;5018585;28;20100;-74
2022/03/25 12:19:45;;;;;;;2.28;1.13;;;15.10;99.90;;;;;;5017706;28;20033;-74
2022/03/25 12:22:17;;;;;;;0.22;0.22;;;15.10;99.90;;;;;;5017834;28;20030;-74
2022/03/25 12:24:43;;;;;;;0.10;0.10;;;15.20;99.90;;;;;;5007825;28;20113;-72
2022/03/25 12:27:09;;;;;;;0.30;0.30;;;15.20;99.90;;;;;;5012559;28;20046;-74
2022/03/25 12:29:37;;;;;;;0.75;0.75;;;15.20;99.90;;;;;;5017470;28;20080;-75
2022/03/25 12:32:05;;;;;;;0.32;0.32;;;15.10;99.90;;;;;;5010198;28;20046;-74
2022/03/25 12:34:49;;;;;;;0.30;0.30;;;15.20;99.90;;;;;;4997745;28;20030;-73
2022/03/25 12:37:42;;;;;;;0.73;0.68;;;15.00;99.90;;;;;;4997355;28;20038;-74
2022/03/25 12:40:23;;;;;;;0.13;0.13;;;15.00;99.90;;;;;;4997239;28;20125;-74
2022/03/25 12:43:04;;;;;;;2.13;0.73;;;15.00;99.90;;;;;;4997456;28;20038;-74
2022/03/25 12:45:41;;;;;;;0.32;0.30;;;14.80;99.90;;;;;;5016661;28;20061;-77
2022/03/25 12:48:17;;;;;;;0.40;0.40;;;14.80;99.90;;;;;;5003446;28;20065;-75
2022/03/25 12:50:48;;;;;;;0.10;0.10;;;14.80;99.90;;;;;;5001903;28;20058;-76
2022/03/25 12:53:15;;;;;;;0.20;0.20;;;14.90;99.90;;;;;;5014071;28;20038;-75
2022/03/25 12:55:41;;;;;;;0.20;0.20;;;14.90;99.90;;;;;;5015882;28;20049;-76
2022/03/25 12:58:13;;;;;;;0.38;0.38;;;14.90;99.90;;;;;;4998244;28;20500;-76
2022/03/25 13:00:47;;;;;;;0.65;0.65;;;14.80;99.90;;;;;;5003532;28;20088;-75
2022/03/25 13:03:15;;;;;;;0.70;0.68;;;15.00;99.90;;;;;;5012765;28;20096;-75
2022/03/25 13:05:42;;;;;;;0.47;0.47;;;15.20;99.90;;;;;;5005958;28;20050;-75